Time;durP1;ratioP1;P1;durP2;ratioP2;P2;SDS_P1;SDS_P2;PMS_P1;PMS_P2;Temp;Humidity;BMP_temperature;BMP_pressure;BME280_temperature;BME280_humidity;BME280_pressure;Samples;Min_cycle;Max_cycle;Signal;HPM_P1;HPM_P2
2022/03/14 00:01:10;;;;;;;5.77;3.50;;;;;;;;;;5056825;28;20084;-73
2022/03/14 00:04:10;;;;;;;7.30;3.58;;;;;;;;;;5063063;28;20386;-73
2022/03/14 00:06:29;;;;;;;6.85;3.58;;;;;;;;;;5056757;28;20048;-73
2022/03/14 00:08:57;;;;;;;6.45;3.30;;;;;;;;;;5056342;28;20048;-73
2022/03/14 00:11:26;;;;;;;6.10;2.90;;;;;;;;;;5060036;28;20060;-73
2022/03/14 00:13:55;;;;;;;6.40;2.95;;;;;;;;;;5059468;28;20421;-73
2022/03/14 00:16:41;;;;;;;5.32;2.90;;;;;;;;;;5059049;28;20483;-73
2022/03/14 00:19:07;;;;;;;8.68;3.20;;;;;;;;;;5057125;28;20060;-73
2022/03/14 00:21:39;;;;;;;6.85;3.10;;;;;;;;;;5058657;28;20520;-73
2022/03/14 00:24:07;;;;;;;5.97;3.42;;;;;;;;;;5059647;28;20080;-73
2022/03/14 00:26:34;;;;;;;6.30;3.35;;;;;;;;;;5056526;28;20214;-73
2022/03/14 00:29:01;;;;;;;6.45;3.50;;;;;;;;;;5055193;28;20075;-73
2022/03/14 00:31:28;;;;;;;5.30;3.33;;;;;;;;;;5056277;28;20076;-73
2022/03/14 00:33:54;;;;;;;7.53;3.30;;;;;;;;;;5058136;28;20511;-73
2022/03/14 00:36:25;;;;;;;9.95;3.60;;;;;;;;;;5054557;28;20425;-73
2022/03/14 00:38:52;;;;;;;5.00;2.97;;;;;;;;;;5059036;28;20110;-73
2022/03/14 00:41:19;;;;;;;7.45;3.63;;;;;;;;;;5061120;28;20127;-73
2022/03/14 00:43:46;;;;;;;8.00;3.65;;;;;;;;;;5057881;28;20131;-73
2022/03/14 00:46:16;;;;;;;5.32;2.78;;;;;;;;;;5054315;28;20167;-74
2022/03/14 00:48:42;;;;;;;6.20;3.20;;;;;;;;;;5058641;28;20063;-74
2022/03/14 00:51:10;;;;;;;7.00;3.67;;;;;;;;;;5056541;28;20670;-74
2022/03/14 00:53:37;;;;;;;6.28;3.47;;;;;;;;;;5056810;28;20076;-73
2022/03/14 00:56:04;;;;;;;8.77;3.60;;;;;;;;;;5061797;28;20556;-73
2022/03/14 00:58:32;;;;;;;8.07;3.65;;;;;;;;;;5056016;28;20595;-73
2022/03/14 01:00:58;;;;;;;7.55;4.13;;;;;;;;;;5055655;28;20048;-73
2022/03/14 01:03:25;;;;;;;21.45;5.43;;;;;;;;;;5058276;28;20443;-74
2022/03/14 01:05:52;;;;;;;10.25;3.88;;;;;;;;;;5062212;28;20160;-73
2022/03/14 01:08:18;;;;;;;6.43;2.95;;;;;;;;;;5057550;28;20163;-74
2022/03/14 01:10:46;;;;;;;6.28;3.13;;;;;;;;;;5060165;28;20463;-74
2022/03/14 01:13:15;;;;;;;6.22;3.38;;;;;;;;;;5062470;28;20123;-74
2022/03/14 01:15:42;;;;;;;4.33;2.50;;;;;;;;;;5056030;28;20076;-74
2022/03/14 01:18:08;;;;;;;4.57;2.80;;;;;;;;;;5057964;28;20353;-74
2022/03/14 01:20:35;;;;;;;7.40;3.40;;;;;;;;;;5058353;28;20814;-73
2022/03/14 01:23:01;;;;;;;6.93;3.35;;;;;;;;;;5057285;28;20132;-73
2022/03/14 01:25:28;;;;;;;6.37;3.37;;;;;;;;;;5057723;28;20080;-73
2022/03/14 01:27:55;;;;;;;8.93;3.88;;;;;;;;;;5053883;28;20126;-73
2022/03/14 01:30:22;;;;;;;6.80;3.70;;;;;;;;;;5049979;28;20075;-74
2022/03/14 01:32:49;;;;;;;5.55;2.85;;;;;;;;;;5048022;28;20095;-73
2022/03/14 01:35:18;;;;;;;7.40;3.63;;;;;;;;;;5047872;28;20126;-74
2022/03/14 01:37:48;;;;;;;8.43;3.92;;;;;;;;;;5048719;28;20576;-74
2022/03/14 01:40:16;;;;;;;7.55;3.53;;;;;;;;;;5048226;28;21971;-74
2022/03/14 01:42:43;;;;;;;7.65;3.58;;;;;;;;;;5048721;28;20136;-74
2022/03/14 01:45:10;;;;;;;7.23;3.77;;;;;;;;;;5050441;28;20084;-74
2022/03/14 01:47:38;;;;;;;6.88;3.55;;;;;;;;;;5051171;28;20398;-74
2022/03/14 01:50:06;;;;;;;6.07;3.40;;;;;;;;;;5061225;28;20087;-74
2022/03/14 01:52:32;;;;;;;5.18;2.83;;;;;;;;;;5055433;28;20483;-74
2022/03/14 01:54:58;;;;;;;6.43;3.63;;;;;;;;;;5052345;28;20175;-74
2022/03/14 01:57:26;;;;;;;5.18;2.65;;;;;;;;;;5057761;28;20095;-73
2022/03/14 01:59:52;;;;;;;6.55;3.28;;;;;;;;;;5061224;28;20140;-74
2022/03/14 02:02:18;;;;;;;6.35;3.38;;;;;;;;;;5062387;28;20131;-74
2022/03/14 02:04:48;;;;;;;7.70;3.90;;;;;;;;;;5060748;28;20041;-74
2022/03/14 02:07:14;;;;;;;5.30;3.22;;;;;;;;;;5059574;28;20106;-74
2022/03/14 02:09:40;;;;;;;6.85;3.17;;;;;;;;;;5061163;28;20507;-74
2022/03/14 02:12:14;;;;;;;9.05;4.05;;;;;;;;;;5059545;28;20143;-74
2022/03/14 02:14:40;;;;;;;8.10;3.72;;;;;;;;;;5063548;28;20139;-74
2022/03/14 02:17:14;;;;;;;5.87;3.53;;;;;;;;;;5056654;28;20572;-74
2022/03/14 02:19:48;;;;;;;5.60;3.20;;;;;;;;;;5060341;28;20551;-74
2022/03/14 02:22:15;;;;;;;7.87;3.50;;;;;;;;;;5040916;28;20137;-74
2022/03/14 02:24:42;;;;;;;7.60;3.88;;;;;;;;;;5041305;28;20358;-74
2022/03/14 02:27:08;;;;;;;;;;;;;;;;;;5041787;28;20095;-74
2022/03/14 02:29:35;;;;;;;10.70;3.60;;;;;;;;;;5041652;28;20376;-74
2022/03/14 02:32:01;;;;;;;7.25;3.42;;;;;;;;;;5045185;28;20477;-74
2022/03/14 02:34:28;;;;;;;7.97;3.63;;;;;;;;;;5042718;28;20568;-74
2022/03/14 02:36:54;;;;;;;9.02;4.00;;;;;;;;;;5039483;28;20084;-74
2022/03/14 02:39:21;;;;;;;6.67;3.33;;;;;;;;;;5041350;28;20072;-74
2022/03/14 02:41:48;;;;;;;7.68;3.75;;;;;;;;;;5040041;28;20084;-74
2022/03/14 02:44:15;;;;;;;11.13;3.95;;;;;;;;;;5044481;28;20555;-74
2022/03/14 02:46:42;;;;;;;8.65;4.13;;;;;;;;;;5040527;28;20485;-74
2022/03/14 02:49:15;;;;;;;8.50;3.53;;;;;;;;;;5035778;28;20092;-74
2022/03/14 02:51:42;;;;;;;8.37;3.60;;;;;;;;;;5041402;28;20045;-75
2022/03/14 02:54:09;;;;;;;8.73;4.00;;;;;;;;;;5029608;28;20129;-74
2022/03/14 02:56:37;;;;;;;8.57;4.68;;;;;;;;;;5035945;28;20052;-74
2022/03/14 02:59:05;;;;;;;9.25;3.90;;;;;;;;;;5032113;28;20141;-74
2022/03/14 03:01:32;;;;;;;7.18;3.95;;;;;;;;;;5032258;28;20051;-74
2022/03/14 03:04:04;;;;;;;6.68;4.00;;;;;;;;;;5031680;28;20049;-74
2022/03/14 03:06:33;;;;;;;5.80;3.35;;;;;;;;;;5037959;28;20477;-74
2022/03/14 03:09:00;;;;;;;9.30;3.92;;;;;;;;;;5031323;28;20123;-74
2022/03/14 03:11:30;;;;;;;8.25;3.88;;;;;;;;;;5030117;28;20052;-74
2022/03/14 03:13:56;;;;;;;;;;;;;;;;;;5032958;28;20061;-74
2022/03/14 03:16:23;;;;;;;7.10;3.83;;;;;;;;;;5031640;28;19972;-74
2022/03/14 03:18:50;;;;;;;8.98;3.55;;;;;;;;;;5030998;28;20435;-74
2022/03/14 03:21:16;;;;;;;8.18;3.70;;;;;;;;;;5031707;28;20508;-74
2022/03/14 03:23:45;;;;;;;9.25;4.25;;;;;;;;;;5031943;28;20053;-74
2022/03/14 03:26:12;;;;;;;6.70;3.83;;;;;;;;;;5032456;28;20053;-75
2022/03/14 03:28:38;;;;;;;8.35;3.60;;;;;;;;;;5033723;28;20128;-74
2022/03/14 03:31:12;;;;;;;7.88;3.80;;;;;;;;;;5030511;28;20554;-74
2022/03/14 03:33:41;;;;;;;10.23;4.03;;;;;;;;;;5032140;28;20073;-74
2022/03/14 03:36:08;;;;;;;7.45;3.80;;;;;;;;;;5030339;28;20140;-74
2022/03/14 03:38:35;;;;;;;6.40;3.72;;;;;;;;;;5015474;28;20048;-74
2022/03/14 03:41:02;;;;;;;11.98;4.45;;;;;;;;;;5029841;28;20948;-73
2022/03/14 03:43:28;;;;;;;7.57;3.65;;;;;;;;;;5030119;28;20215;-74
2022/03/14 03:45:54;;;;;;;7.78;3.45;;;;;;;;;;5030862;28;20075;-74
2022/03/14 03:48:24;;;;;;;6.80;3.90;;;;;;;;;;5030276;28;20585;-74
2022/03/14 03:50:51;;;;;;;9.05;3.88;;;;;;;;;;5036981;28;20092;-75
2022/03/14 03:53:17;;;;;;;6.93;3.60;;;;;;;;;;5022066;28;20072;-74
2022/03/14 03:55:50;;;;;;;8.52;3.97;;;;;;;;;;5037692;28;20128;-74
2022/03/14 03:58:16;;;;;;;6.63;3.75;;;;;;;;;;5042106;28;20140;-75
2022/03/14 04:00:43;;;;;;;8.80;3.92;;;;;;;;;;5039561;28;20128;-75
2022/03/14 04:03:10;;;;;;;8.32;4.20;;;;;;;;;;5041924;28;20048;-75
2022/03/14 04:05:39;;;;;;;8.18;3.70;;;;;;;;;;5039057;28;20048;-74
2022/03/14 04:08:10;;;;;;;7.28;3.80;;;;;;;;;;5031529;28;20045;-74
2022/03/14 04:10:37;;;;;;;7.70;3.85;;;;;;;;;;5027367;28;20051;-75
2022/03/14 04:13:06;;;;;;;7.63;3.85;;;;;;;;;;5031281;28;20125;-74
2022/03/14 04:15:52;;;;;;;9.25;4.10;;;;;;;;;;5029964;28;20496;-74
2022/03/14 04:18:20;;;;;;;8.25;4.07;;;;;;;;;;5035107;28;20088;-74
2022/03/14 04:20:47;;;;;;;8.45;4.18;;;;;;;;;;5046255;28;20571;-74
2022/03/14 04:23:14;;;;;;;7.18;3.80;;;;;;;;;;5049877;28;20059;-74
2022/03/14 04:25:43;;;;;;;8.38;4.13;;;;;;;;;;5048966;28;20585;-74
2022/03/14 04:28:10;;;;;;;9.05;4.43;;;;;;;;;;5051315;28;20250;-74
2022/03/14 04:30:36;;;;;;;8.27;4.07;;;;;;;;;;5050780;28;20086;-74
2022/03/14 04:33:08;;;;;;;7.18;3.70;;;;;;;;;;5051252;28;20049;-74
2022/03/14 04:35:35;;;;;;;8.30;3.90;;;;;;;;;;5055144;28;20058;-74
2022/03/14 04:38:03;;;;;;;5.90;3.15;;;;;;;;;;5050284;28;20140;-74
2022/03/14 04:40:32;;;;;;;8.85;3.80;;;;;;;;;;5049740;28;20130;-74
2022/03/14 04:43:02;;;;;;;7.13;4.03;;;;;;;;;;5053934;28;20123;-74
2022/03/14 04:45:28;;;;;;;8.75;4.47;;;;;;;;;;5056430;28;20633;-74
2022/03/14 04:47:55;;;;;;;8.68;4.47;;;;;;;;;;5051003;28;20865;-74
2022/03/14 04:50:22;;;;;;;9.15;4.05;;;;;;;;;;5051344;28;20124;-75
2022/03/14 04:52:48;;;;;;;12.18;5.22;;;;;;;;;;5050439;28;20135;-75
2022/03/14 04:55:15;;;;;;;8.27;4.32;;;;;;;;;;5051421;28;20139;-75
2022/03/14 04:57:42;;;;;;;7.43;3.67;;;;;;;;;;5056198;28;20132;-74
2022/03/14 05:00:08;;;;;;;10.38;4.15;;;;;;;;;;5056978;28;20084;-75
2022/03/14 05:02:42;;;;;;;7.68;4.28;;;;;;;;;;5055876;28;20498;-74
2022/03/14 05:05:11;;;;;;;8.93;5.05;;;;;;;;;;5058320;28;20114;-74
2022/03/14 05:07:38;;;;;;;11.00;4.25;;;;;;;;;;5056015;28;20132;-75
2022/03/14 05:10:11;;;;;;;8.73;4.25;;;;;;;;;;5060103;28;20478;-74
2022/03/14 05:12:37;;;;;;;10.68;4.47;;;;;;;;;;5056435;28;20084;-75
2022/03/14 05:15:04;;;;;;;8.00;4.10;;;;;;;;;;5054931;28;20049;-74
2022/03/14 05:17:33;;;;;;;8.32;4.63;;;;;;;;;;5062827;28;20850;-74
2022/03/14 05:19:59;;;;;;;12.35;4.97;;;;;;;;;;5056284;28;20132;-74
2022/03/14 05:22:26;;;;;;;7.90;3.90;;;;;;;;;;5062635;28;20045;-74
2022/03/14 05:24:53;;;;;;;8.98;4.60;;;;;;;;;;5060344;28;20386;-74
2022/03/14 05:27:19;;;;;;;8.70;4.90;;;;;;;;;;5062930;28;20080;-75
2022/03/14 05:29:46;;;;;;;11.10;4.78;;;;;;;;;;5061060;28;20124;-75
2022/03/14 05:32:15;;;;;;;7.85;4.55;;;;;;;;;;5062466;28;20263;-75
2022/03/14 05:34:42;;;;;;;8.77;4.78;;;;;;;;;;5061778;28;20076;-75
2022/03/14 05:37:08;;;;;;;9.60;4.47;;;;;;;;;;5059922;28;20106;-75
2022/03/14 05:39:35;;;;;;;9.65;4.05;;;;;;;;;;5060146;28;20122;-75
2022/03/14 05:42:02;;;;;;;9.65;4.75;;;;;;;;;;5059864;28;20081;-74
2022/03/14 05:44:28;;;;;;;11.82;5.40;;;;;;;;;;5060748;28;20127;-75
2022/03/14 05:46:59;;;;;;;10.48;5.10;;;;;;;;;;5061556;28;20517;-75
2022/03/14 05:49:25;;;;;;;7.53;4.13;;;;;;;;;;5061572;28;20067;-74
2022/03/14 05:51:52;;;;;;;9.23;4.80;;;;;;;;;;5061471;28;20135;-74
2022/03/14 05:54:25;;;;;;;12.70;5.38;;;;;;;;;;5058841;28;20056;-74
2022/03/14 05:56:51;;;;;;;11.68;5.10;;;;;;;;;;5057574;28;20148;-74
2022/03/14 05:59:18;;;;;;;10.85;5.72;;;;;;;;;;5053965;28;20120;-74
2022/03/14 06:01:44;;;;;;;11.07;4.95;;;;;;;;;;5055468;28;20792;-74
2022/03/14 06:04:11;;;;;;;12.60;5.60;;;;;;;;;;5055386;28;20045;-74
2022/03/14 06:06:38;;;;;;;8.32;3.75;;;;;;;;;;5056756;28;20079;-74
2022/03/14 06:09:06;;;;;;;11.48;5.43;;;;;;;;;;5054229;28;20136;-74
2022/03/14 06:11:32;;;;;;;9.98;4.88;;;;;;;;;;5055886;28;20052;-75
2022/03/14 06:13:59;;;;;;;11.95;5.45;;;;;;;;;;5047365;28;20079;-74
2022/03/14 06:16:25;;;;;;;12.27;5.32;;;;;;;;;;5056108;28;20139;-74
2022/03/14 06:18:52;;;;;;;11.43;5.13;;;;;;;;;;5055270;28;20703;-74
2022/03/14 06:21:18;;;;;;;10.90;5.20;;;;;;;;;;5046102;27;20057;-74
2022/03/14 06:23:45;;;;;;;9.05;4.95;;;;;;;;;;5034261;28;20094;-74
2022/03/14 06:26:11;;;;;;;11.45;5.47;;;;;;;;;;5036629;28;20071;-74
2022/03/14 06:28:38;;;;;;;10.73;4.03;;;;;;;;;;5037181;28;20091;-74
2022/03/14 06:31:04;;;;;;;11.55;5.32;;;;;;;;;;5035051;28;20461;-74
2022/03/14 06:33:31;;;;;;;14.98;6.10;;;;;;;;;;5034527;28;20134;-74
2022/03/14 06:35:57;;;;;;;11.95;5.55;;;;;;;;;;5037273;28;20128;-74
2022/03/14 06:38:24;;;;;;;11.95;5.03;;;;;;;;;;5026044;28;20102;-74
2022/03/14 06:40:52;;;;;;;13.32;6.53;;;;;;;;;;5039623;28;20156;-74
2022/03/14 06:43:19;;;;;;;20.10;7.00;;;;;;;;;;5040377;28;20468;-74
2022/03/14 06:45:47;;;;;;;10.88;6.38;;;;;;;;;;5043485;28;20072;-74
2022/03/14 06:48:14;;;;;;;12.75;6.10;;;;;;;;;;5039325;28;20108;-73
2022/03/14 06:50:40;;;;;;;14.65;7.10;;;;;;;;;;5040979;28;20049;-73
2022/03/14 06:53:14;;;;;;;12.15;6.63;;;;;;;;;;5040742;28;20136;-73
2022/03/14 06:55:40;;;;;;;16.70;7.13;;;;;;;;;;5043651;28;20080;-73
2022/03/14 06:58:07;;;;;;;13.68;6.78;;;;;;;;;;5039053;28;20135;-73
2022/03/14 07:00:34;;;;;;;14.90;7.43;;;;;;;;;;5038751;28;20508;-73
2022/03/14 07:03:01;;;;;;;14.00;7.63;;;;;;;;;;5040720;28;20053;-72
2022/03/14 07:05:27;;;;;;;18.92;7.65;;;;;;;;;;5038026;28;20037;-72
2022/03/14 07:08:01;;;;;;;15.23;7.82;;;;;;;;;;5044818;28;20483;-73
2022/03/14 07:10:28;;;;;;;13.07;7.55;;;;;;;;;;5037364;28;20053;-73
2022/03/14 07:12:54;;;;;;;18.33;8.30;;;;;;;;;;5041492;28;20099;-72
2022/03/14 07:15:25;;;;;;;15.77;8.00;;;;;;;;;;5039483;28;20085;-72
2022/03/14 07:17:52;;;;;;;17.00;8.15;;;;;;;;;;5038789;28;20103;-72
2022/03/14 07:20:19;;;;;;;12.83;7.70;;;;;;;;;;5039090;28;20084;-71
2022/03/14 07:22:50;;;;;;;15.15;8.48;;;;;;;;;;5060189;28;20110;-72
2022/03/14 07:25:20;;;;;;;17.55;7.95;;;;;;;;;;5062312;28;20189;-73
2022/03/14 07:27:53;;;;;;;20.48;8.80;;;;;;;;;;5061902;28;20486;-72
2022/03/14 07:30:20;;;;;;;15.85;8.70;;;;;;;;;;5059641;28;20079;-71
2022/03/14 07:32:47;;;;;;;19.20;7.75;;;;;;;;;;5058475;28;20131;-72
2022/03/14 07:35:14;;;;;;;16.38;7.05;;;;;;;;;;5058970;28;20068;-72
2022/03/14 07:37:41;;;;;;;17.50;8.40;;;;;;;;;;5057062;28;20092;-73
2022/03/14 07:40:08;;;;;;;16.42;8.80;;;;;;;;;;5058238;28;20048;-71
2022/03/14 07:42:43;;;;;;;19.05;9.30;;;;;;;;;;5059718;28;20091;-71
2022/03/14 07:45:10;;;;;;;17.33;8.73;;;;;;;;;;5057867;28;20076;-71
2022/03/14 07:47:37;;;;;;;;;;;;;;;;;;5058358;28;20152;-72
2022/03/14 07:50:05;;;;;;;16.52;8.93;;;;;;;;;;5059072;28;20300;-71
2022/03/14 07:52:32;;;;;;;16.52;9.45;;;;;;;;;;5059518;28;20056;-71
2022/03/14 07:55:06;;;;;;;16.55;9.20;;;;;;;;;;5058133;28;20088;-71
2022/03/14 07:57:33;;;;;;;18.23;9.70;;;;;;;;;;5060890;28;20084;-71
2022/03/14 07:59:59;;;;;;;20.70;9.98;;;;;;;;;;5060094;28;20044;-71
2022/03/14 08:02:26;;;;;;;13.27;7.30;;;;;;;;;;5060288;28;20114;-70
2022/03/14 08:04:53;;;;;;;14.30;8.43;;;;;;;;;;5058224;28;20045;-70
2022/03/14 08:07:20;;;;;;;23.27;10.90;;;;;;;;;;5060458;28;20123;-71
2022/03/14 08:09:55;;;;;;;20.00;10.00;;;;;;;;;;5059376;28;20480;-70
2022/03/14 08:12:22;;;;;;;17.58;9.63;;;;;;;;;;5060257;28;20136;-70
2022/03/14 08:14:50;;;;;;;19.90;10.35;;;;;;;;;;5056476;28;20052;-71
2022/03/14 08:17:18;;;;;;;22.73;10.10;;;;;;;;;;5060991;28;20139;-70
2022/03/14 08:19:44;;;;;;;19.20;10.32;;;;;;;;;;5057591;28;20508;-69
2022/03/14 08:22:17;;;;;;;16.98;10.07;;;;;;;;;;5061316;27;20092;-70
2022/03/14 08:24:47;;;;;;;19.65;10.35;;;;;;;;;;5061811;28;20084;-70
2022/03/14 08:27:13;;;;;;;20.65;10.63;;;;;;;;;;5058868;28;20071;-70
2022/03/14 08:29:40;;;;;;;21.95;10.73;;;;;;;;;;5055891;28;20633;-70
2022/03/14 08:32:08;;;;;;;17.15;10.60;;;;;;;;;;5064621;28;20131;-69
2022/03/14 08:34:35;;;;;;;;;;;;;;;;;;5056119;28;20052;-70
2022/03/14 08:37:01;;;;;;;23.15;10.77;;;;;;;;;;5060120;28;19960;-69
2022/03/14 08:39:31;;;;;;;19.55;10.15;;;;;;;;;;5056691;28;20076;-70
2022/03/14 08:41:58;;;;;;;20.65;11.50;;;;;;;;;;5059814;28;20049;-69
2022/03/14 08:44:26;;;;;;;24.13;11.55;;;;;;;;;;5058483;28;20044;-70
2022/03/14 08:46:59;;;;;;;25.75;10.38;;;;;;;;;;5055379;28;20591;-70
2022/03/14 08:49:25;;;;;;;24.15;11.13;;;;;;;;;;5056066;28;20060;-69
2022/03/14 08:51:52;;;;;;;27.25;11.25;;;;;;;;;;5059627;28;20073;-69
2022/03/14 08:54:25;;;;;;;23.25;12.20;;;;;;;;;;5052389;28;20106;-69
2022/03/14 08:56:52;;;;;;;22.90;12.40;;;;;;;;;;5058379;28;20084;-70
2022/03/14 08:59:18;;;;;;;21.48;10.77;;;;;;;;;;5063848;28;20569;-69
2022/03/14 09:01:51;;;;;;;28.05;11.60;;;;;;;;;;5062020;28;20091;-70
2022/03/14 09:04:18;;;;;;;17.10;8.82;;;;;;;;;;5061696;28;20601;-70
2022/03/14 09:06:45;;;;;;;21.92;11.68;;;;;;;;;;5064136;28;20167;-69
2022/03/14 09:09:15;;;;;;;20.75;11.55;;;;;;;;;;5061896;28;20084;-69
2022/03/14 09:11:42;;;;;;;19.85;12.05;;;;;;;;;;5064418;28;20105;-69
2022/03/14 09:14:08;;;;;;;23.45;12.63;;;;;;;;;;5061024;28;20099;-69
2022/03/14 09:16:35;;;;;;;21.88;11.70;;;;;;;;;;5063967;28;20128;-69
2022/03/14 09:19:05;;;;;;;20.42;11.90;;;;;;;;;;5064349;28;20331;-69
2022/03/14 09:21:33;;;;;;;21.00;11.13;;;;;;;;;;5056304;28;20127;-70
2022/03/14 09:24:01;;;;;;;21.65;12.57;;;;;;;;;;5042954;28;20084;-70
2022/03/14 09:26:27;;;;;;;19.80;10.90;;;;;;;;;;5040489;28;20144;-70
2022/03/14 09:28:54;;;;;;;22.30;12.25;;;;;;;;;;5036668;28;20089;-70
2022/03/14 09:31:21;;;;;;;23.67;12.18;;;;;;;;;;5043595;28;20132;-69
2022/03/14 09:33:48;;;;;;;25.52;12.55;;;;;;;;;;5041357;28;20448;-67
2022/03/14 09:36:14;;;;;;;21.55;11.50;;;;;;;;;;5039489;28;20560;-68
2022/03/14 09:38:42;;;;;;;21.17;11.55;;;;;;;;;;5039351;28;20540;-67
2022/03/14 09:41:09;;;;;;;22.80;11.35;;;;;;;;;;5040198;28;20076;-68
2022/03/14 09:43:39;;;;;;;19.80;11.93;;;;;;;;;;5040382;28;20136;-67
2022/03/14 09:46:12;;;;;;;19.50;11.27;;;;;;;;;;5040457;28;20136;-67
2022/03/14 09:48:41;;;;;;;23.38;11.35;;;;;;;;;;5041287;28;20566;-67
2022/03/14 09:51:07;;;;;;;22.27;12.00;;;;;;;;;;5043430;28;20084;-68
2022/03/14 09:53:35;;;;;;;19.75;11.07;;;;;;;;;;5038642;28;20072;-67
2022/03/14 09:56:01;;;;;;;19.50;11.02;;;;;;;;;;5044983;28;20087;-67
2022/03/14 09:58:28;;;;;;;19.58;11.85;;;;;;;;;;5043475;28;20072;-68
2022/03/14 10:00:54;;;;;;;22.42;12.23;;;;;;;;;;5042326;28;20501;-67
2022/03/14 10:03:21;;;;;;;23.67;11.48;;;;;;;;;;5043838;28;20140;-68
2022/03/14 10:05:49;;;;;;;20.42;11.18;;;;;;;;;;5042801;28;20131;-67
2022/03/14 10:08:16;;;;;;;20.70;11.50;;;;;;;;;;5041486;28;20088;-67
2022/03/14 10:10:43;;;;;;;20.23;11.30;;;;;;;;;;5042611;28;20501;-67
2022/03/14 10:13:29;;;;;;;24.27;11.57;;;;;;;;;;5039890;28;20064;-67
2022/03/14 10:16:00;;;;;;;22.73;11.70;;;;;;;;;;5043738;28;20080;-67
2022/03/14 10:18:27;;;;;;;24.38;12.25;;;;;;;;;;5038684;28;20096;-67
2022/03/14 10:20:55;;;;;;;25.27;11.88;;;;;;;;;;5043967;28;20560;-67
2022/03/14 10:23:32;;;;;;;21.00;12.43;;;;;;;;;;5048562;28;20084;-67
2022/03/14 10:26:00;;;;;;;22.00;11.02;;;;;;;;;;5048609;28;20128;-67
2022/03/14 10:28:27;;;;;;;21.67;11.70;;;;;;;;;;5049313;28;20131;-67
2022/03/14 10:30:54;;;;;;;20.75;10.95;;;;;;;;;;5049712;28;20120;-67
2022/03/14 10:33:24;;;;;;;19.27;11.00;;;;;;;;;;5050116;28;20142;-67
2022/03/14 10:35:54;;;;;;;20.35;10.70;;;;;;;;;;5050760;28;20052;-67
2022/03/14 10:38:23;;;;;;;18.88;10.93;;;;;;;;;;5032933;28;20088;-67
2022/03/14 10:40:51;;;;;;;21.58;10.13;;;;;;;;;;5051788;28;20131;-67
2022/03/14 10:43:27;;;;;;;16.10;8.95;;;;;;;;;;5051443;28;20060;-67
2022/03/14 10:45:55;;;;;;;14.95;8.85;;;;;;;;;;5050749;28;20045;-67
2022/03/14 10:48:32;;;;;;;13.88;8.38;;;;;;;;;;5051232;28;20301;-67
2022/03/14 10:51:03;;;;;;;19.13;8.80;;;;;;;;;;5049865;28;20076;-67
2022/03/14 10:53:30;;;;;;;13.15;7.57;;;;;;;;;;5048788;28;20569;-67
2022/03/14 10:55:59;;;;;;;14.02;8.32;;;;;;;;;;5051557;28;20468;-67
2022/03/14 10:58:30;;;;;;;14.70;8.25;;;;;;;;;;5050759;28;20076;-67
2022/03/14 11:00:58;;;;;;;14.85;7.85;;;;;;;;;;5049789;28;20143;-67
2022/03/14 11:03:27;;;;;;;13.88;7.13;;;;;;;;;;5047482;28;20059;-67
2022/03/14 11:05:58;;;;;;;12.38;6.70;;;;;;;;;;5047739;28;20483;-67
2022/03/14 11:08:30;;;;;;;12.45;6.80;;;;;;;;;;5049291;28;20102;-67
2022/03/14 11:10:57;;;;;;;12.02;6.45;;;;;;;;;;5047377;28;20107;-67
2022/03/14 11:13:24;;;;;;;13.10;7.18;;;;;;;;;;5048334;28;20088;-67
2022/03/14 11:15:50;;;;;;;14.07;7.05;;;;;;;;;;5048296;28;20131;-67
2022/03/14 11:18:19;;;;;;;;;;;;;;;;;;5043009;28;20122;-67
2022/03/14 11:20:46;;;;;;;12.15;6.07;;;;;;;;;;5045221;28;19921;-67
2022/03/14 11:23:13;;;;;;;10.83;6.63;;;;;;;;;;5042329;28;20119;-67
2022/03/14 11:25:42;;;;;;;11.15;6.45;;;;;;;;;;5039717;28;20100;-67
2022/03/14 11:28:09;;;;;;;10.10;6.05;;;;;;;;;;5038346;28;20053;-67
2022/03/14 11:30:36;;;;;;;10.97;6.47;;;;;;;;;;5038762;28;20095;-67
2022/03/14 11:33:03;;;;;;;10.85;6.25;;;;;;;;;;5038146;28;20052;-67
2022/03/14 11:35:30;;;;;;;11.02;6.18;;;;;;;;;;5041741;28;20057;-67
2022/03/14 11:37:57;;;;;;;10.77;6.28;;;;;;;;;;5044117;28;20065;-67
2022/03/14 11:40:32;;;;;;;10.40;5.90;;;;;;;;;;5036818;28;20060;-67
2022/03/14 11:42:59;;;;;;;11.68;6.30;;;;;;;;;;5023863;28;20071;-67
2022/03/14 11:45:25;;;;;;;10.50;6.82;;;;;;;;;;5039449;28;20053;-67
2022/03/14 11:47:58;;;;;;;10.82;6.78;;;;;;;;;;5038992;28;20595;-67
2022/03/14 11:50:25;;;;;;;12.85;6.40;;;;;;;;;;5036907;28;20137;-66
2022/03/14 11:52:51;;;;;;;13.40;6.27;;;;;;;;;;5036099;28;20166;-67
2022/03/14 11:55:29;;;;;;;10.07;6.28;;;;;;;;;;5040778;28;20057;-67
2022/03/14 11:57:56;;;;;;;11.52;6.57;;;;;;;;;;5039799;28;20126;-67
2022/03/14 12:00:24;;;;;;;10.95;6.20;;;;;;;;;;5023954;28;20123;-67
2022/03/14 12:02:52;;;;;;;12.25;6.25;;;;;;;;;;5039180;28;20080;-67
2022/03/14 12:05:19;;;;;;;;;;;;;;;;;;5042937;28;20500;-67
2022/03/14 12:07:45;;;;;;;10.05;6.28;;;;;;;;;;5037605;28;20007;-67
2022/03/14 12:10:30;;;;;;;10.18;6.45;;;;;;;;;;5036736;28;20163;-67
2022/03/14 12:13:01;;;;;;;12.30;6.63;;;;;;;;;;5036582;28;20087;-68
2022/03/14 12:15:38;;;;;;;12.70;6.07;;;;;;;;;;5040276;28;20103;-68
2022/03/14 12:18:33;;;;;;;12.90;7.20;;;;;;;;;;5036329;28;20049;-68
2022/03/14 12:21:04;;;;;;;10.07;6.32;;;;;;;;;;5023060;28;20520;-66
2022/03/14 12:23:31;;;;;;;10.57;6.10;;;;;;;;;;5040141;28;20099;-68
2022/03/14 12:25:59;;;;;;;10.38;6.35;;;;;;;;;;5037861;28;20144;-68
2022/03/14 12:28:29;;;;;;;12.70;6.57;;;;;;;;;;5035485;28;20568;-68
2022/03/14 12:31:16;;;;;;;12.00;6.43;;;;;;;;;;5038152;28;20145;-68
2022/03/14 12:33:50;;;;;;;8.70;6.20;;;;;;;;;;5036165;28;20063;-68
2022/03/14 12:36:40;;;;;;;12.00;6.78;;;;;;;;;;5022728;28;20425;-68
2022/03/14 12:39:09;;;;;;;118.07;60.88;;;;;;;;;;5035748;28;20124;-67
2022/03/14 12:41:37;;;;;;;18.10;10.57;;;;;;;;;;5038538;28;20573;-68
2022/03/14 12:44:22;;;;;;;14.25;7.15;;;;;;;;;;5037247;28;20076;-68
2022/03/14 12:46:58;;;;;;;10.07;6.40;;;;;;;;;;5040073;28;20717;-68
2022/03/14 12:49:26;;;;;;;15.90;7.68;;;;;;;;;;5036177;28;20500;-68
2022/03/14 12:52:08;;;;;;;14.95;7.50;;;;;;;;;;5039135;28;20080;-68
2022/03/14 12:54:42;;;;;;;11.68;6.85;;;;;;;;;;5037983;28;20053;-68
2022/03/14 12:57:09;;;;;;;9.52;6.18;;;;;;;;;;5036758;28;20045;-68
2022/03/14 12:59:41;;;;;;;10.48;6.65;;;;;;;;;;5040007;28;20476;-67
2022/03/14 13:02:22;;;;;;;11.20;6.70;;;;;;;;;;5020606;28;20120;-68
2022/03/14 13:04:57;;;;;;;16.05;7.25;;;;;;;;;;5037521;28;20055;-67
2022/03/14 13:07:25;;;;;;;11.07;6.90;;;;;;;;;;5037873;28;20056;-68
2022/03/14 13:09:51;;;;;;;11.27;6.85;;;;;;;;;;5037845;28;20084;-68
2022/03/14 13:12:18;;;;;;;12.90;6.97;;;;;;;;;;5036781;28;20065;-68
2022/03/14 13:14:45;;;;;;;13.32;7.07;;;;;;;;;;5034992;28;20323;-67
2022/03/14 13:17:19;;;;;;;12.00;6.78;;;;;;;;;;5038944;28;20080;-68
2022/03/14 13:19:46;;;;;;;10.82;7.25;;;;;;;;;;5035226;28;20175;-68
2022/03/14 13:22:14;;;;;;;12.82;7.07;;;;;;;;;;5046011;28;20135;-68
2022/03/14 13:24:40;;;;;;;;;;;;;;;;;;5058083;28;20492;-68
2022/03/14 13:27:09;;;;;;;11.88;6.95;;;;;;;;;;5055579;28;19998;-68
2022/03/14 13:29:35;;;;;;;9.95;6.60;;;;;;;;;;5056107;28;20088;-68
2022/03/14 13:32:01;;;;;;;12.07;6.50;;;;;;;;;;5058896;28;20136;-68
2022/03/14 13:34:31;;;;;;;12.60;6.65;;;;;;;;;;5058534;28;20136;-68
2022/03/14 13:37:02;;;;;;;10.55;6.57;;;;;;;;;;5058769;28;20145;-67
2022/03/14 13:39:40;;;;;;;11.60;6.75;;;;;;;;;;5057557;28;20061;-67
2022/03/14 13:42:07;;;;;;;9.63;5.80;;;;;;;;;;5061368;28;20126;-68
2022/03/14 13:44:34;;;;;;;9.50;5.88;;;;;;;;;;5061071;28;20076;-68
2022/03/14 13:47:02;;;;;;;9.32;5.45;;;;;;;;;;5060112;28;20562;-68
2022/03/14 13:49:31;;;;;;;8.60;5.47;;;;;;;;;;5063621;28;20056;-68
2022/03/14 13:52:07;;;;;;;8.43;5.85;;;;;;;;;;5061118;28;20140;-68
2022/03/14 13:54:36;;;;;;;9.27;5.43;;;;;;;;;;5063731;28;20052;-68
2022/03/14 13:57:10;;;;;;;10.23;5.55;;;;;;;;;;5060779;28;20072;-68
2022/03/14 13:59:41;;;;;;;10.27;5.38;;;;;;;;;;5057148;28;20636;-68
2022/03/14 14:02:09;;;;;;;10.05;5.63;;;;;;;;;;5063263;28;20106;-68
2022/03/14 14:04:42;;;;;;;8.35;5.20;;;;;;;;;;5060945;28;20037;-68
2022/03/14 14:07:19;;;;;;;10.38;5.57;;;;;;;;;;5063619;28;20136;-68
2022/03/14 14:10:01;;;;;;;11.52;6.43;;;;;;;;;;5060593;28;20053;-68
2022/03/14 14:12:29;;;;;;;10.23;6.20;;;;;;;;;;5058022;28;20164;-68
2022/03/14 14:14:59;;;;;;;9.80;6.00;;;;;;;;;;5060682;28;20117;-68
2022/03/14 14:17:32;;;;;;;9.95;5.72;;;;;;;;;;5055361;28;20129;-68
2022/03/14 14:20:11;;;;;;;9.35;5.63;;;;;;;;;;5058560;28;20416;-68
2022/03/14 14:22:43;;;;;;;10.50;5.70;;;;;;;;;;5046387;28;20149;-68
2022/03/14 14:25:13;;;;;;;10.45;6.10;;;;;;;;;;5039759;28;20092;-68
2022/03/14 14:27:50;;;;;;;9.95;5.82;;;;;;;;;;5038702;28;20465;-67
2022/03/14 14:30:29;;;;;;;8.75;5.70;;;;;;;;;;5041086;28;20509;-68
2022/03/14 14:32:58;;;;;;;10.43;6.13;;;;;;;;;;5040227;28;20059;-68
2022/03/14 14:35:28;;;;;;;10.68;5.68;;;;;;;;;;5039847;28;20206;-68
2022/03/14 14:37:54;;;;;;;9.55;6.35;;;;;;;;;;5038535;28;20261;-68
2022/03/14 14:40:21;;;;;;;9.60;6.25;;;;;;;;;;5041732;28;20106;-68
2022/03/14 14:42:55;;;;;;;8.25;5.80;;;;;;;;;;5039338;28;20084;-68
2022/03/14 14:45:21;;;;;;;9.50;5.70;;;;;;;;;;5038494;28;20088;-68